Terminal Aerodrome Forecast
Issued by NWS

Home | Current Version | Previous Version | Text Only | Print | Product List | Glossary On
Versions: 1 2 3 4 5 6 7 8 9 10 11 12 13
981
FTPA31 PHFO 211739
TAFHKO
TAF
PHKO 211739Z 2118/2218 05007KT P6SM SCT025 BKN050
     FM212000 21009KT P6SM FEW035 SCT050 BKN300
     FM220500 15005KT P6SM SCT030 BKN050=

USA.gov is the U.S. government's official web portal to all federal, state and local government web resources and services.